Redgranite, Wisconsin
Current Conditions -  °F | °C
As of 6:10 AM on Monday 24 Nov 2014 (Local Time) from KY50 Reporting Station
Overcast Overcast  
Wind Chill:   Ceiling: 500
Heat Index:   Visibility: 10mi
Dew Point:   Wind: 10mph
Humidity: 100%   Direction: 290°WNW
Pressure: 29.06"   Gusts: NA
Location:  44.04°N, 89.1°W
Report Text: KY50 241210Z AUTO 29009KT 10SM OVC005 05/05 A2906 RMK AO2 TSNO
Loading
Personal Weather Stations






























Interactive Weather Map New forecast layout! Learn more

10-Day Weather Forecast

Advertisements
Track Severe Weather on mobile